Accueil
METAR-TAF:

METAR-TAF

Aéroports :

Aéroport Riviera Airport

Albenga, Italie

latitude: 44-03N, longitude: 008-07E, altitude: 45 m

Observation

Le bulletin a été fait il y a 57 minutes, à 08:50 UTC
Vent 15 kt de nord avec des rafales jusqu'à 27 kt, variant entre nord/nord-ouest et nord-est
Température 11°C
Humidité 20%
Pression 1039 hPa
Visibilité 10 km ou plus
Quelques nuages à une hauteur de 6000 ft
Nuages épars à une hauteur de 9000 ft

METAR: LIMG 210850Z 36015G27KT 330V050 9999 FEW060 SCT090 11/M11 Q1039

Heure: 10:47 (09:47 UTC)


TAF: absent

Observations et prévisions météorologiques de plus de 4000 aéroports (messages METAR et TAF).

Les stations disponibles sont représentées par des disques jaunes et rouges sur la carte.

Passer la souris dessus pour voir le nom de la station.

Cliquer dessus pour voir les observations et prévisions météorologiques.

Pour changer de carte: cliquez sur les boutons verts avec une croix noire pour zoomer, sur le bouton vert avec un tiret pour effectuer un zoom arrière, ou sur les flèches vertes pour les cartes adjacentes.


METAR-TAF: